sensor_id;sensor_type;location;lat;lon;timestamp;pressure;altitude;pressure_sealevel;temperature;humidity
23176;BME280;19910;42.652;23.332;2023-04-07T00:00:22;94367.25;;;2.33;58.97
23176;BME280;19910;42.652;23.332;2023-04-07T00:02:49;94352.75;;;2.39;57.86
23176;BME280;19910;42.652;23.332;2023-04-07T00:05:16;94349.53;;;2.42;57.40
23176;BME280;19910;42.652;23.332;2023-04-07T00:07:43;94353.00;;;2.42;57.67
23176;BME280;19910;42.652;23.332;2023-04-07T00:10:09;94350.56;;;2.46;57.42
23176;BME280;19910;42.652;23.332;2023-04-07T00:12:38;94343.63;;;2.45;56.76
23176;BME280;19910;42.652;23.332;2023-04-07T00:15:05;94347.31;;;2.49;56.57
23176;BME280;19910;42.652;23.332;2023-04-07T00:17:32;94348.28;;;2.58;57.15
23176;BME280;19910;42.652;23.332;2023-04-07T00:19:59;94357.94;;;2.54;56.87
23176;BME280;19910;42.652;23.332;2023-04-07T00:22:25;94343.03;;;2.48;56.89
23176;BME280;19910;42.652;23.332;2023-04-07T00:24:52;94349.88;;;2.59;56.01
23176;BME280;19910;42.652;23.332;2023-04-07T00:27:19;94344.06;;;2.52;56.30
23176;BME280;19910;42.652;23.332;2023-04-07T00:29:48;94341.97;;;2.49;56.58
23176;BME280;19910;42.652;23.332;2023-04-07T00:32:15;94339.47;;;2.58;56.78
23176;BME280;19910;42.652;23.332;2023-04-07T00:34:42;94341.69;;;2.50;56.09
23176;BME280;19910;42.652;23.332;2023-04-07T00:37:09;94341.78;;;2.40;56.57
23176;BME280;19910;42.652;23.332;2023-04-07T00:39:35;94337.81;;;2.38;56.62
23176;BME280;19910;42.652;23.332;2023-04-07T00:42:02;94342.03;;;2.44;58.64
23176;BME280;19910;42.652;23.332;2023-04-07T00:44:29;94337.38;;;2.55;56.58
23176;BME280;19910;42.652;23.332;2023-04-07T00:46:58;94351.53;;;2.55;55.89
23176;BME280;19910;42.652;23.332;2023-04-07T00:49:25;94344.19;;;2.42;56.94
23176;BME280;19910;42.652;23.332;2023-04-07T00:51:53;94352.25;;;2.37;58.48
23176;BME280;19910;42.652;23.332;2023-04-07T00:54:20;94347.19;;;2.35;56.91
23176;BME280;19910;42.652;23.332;2023-04-07T00:56:47;94345.31;;;2.36;56.73
23176;BME280;19910;42.652;23.332;2023-04-07T00:59:14;94344.75;;;2.39;56.93
23176;BME280;19910;42.652;23.332;2023-04-07T01:01:44;94352.00;;;2.33;56.93
23176;BME280;19910;42.652;23.332;2023-04-07T01:04:19;94352.19;;;2.18;57.61
23176;BME280;19910;42.652;23.332;2023-04-07T01:06:50;94335.38;;;2.12;58.61
23176;BME280;19910;42.652;23.332;2023-04-07T01:09:22;94341.78;;;2.17;57.97
23176;BME280;19910;42.652;23.332;2023-04-07T01:11:55;94343.84;;;2.20;58.46
23176;BME280;19910;42.652;23.332;2023-04-07T01:14:27;94342.31;;;2.13;57.22
23176;BME280;19910;42.652;23.332;2023-04-07T01:16:56;94329.66;;;2.24;58.03
23176;BME280;19910;42.652;23.332;2023-04-07T01:19:34;94344.84;;;2.29;57.45
23176;BME280;19910;42.652;23.332;2023-04-07T01:22:08;94334.72;;;2.26;57.21
23176;BME280;19910;42.652;23.332;2023-04-07T01:25:01;94330.97;;;2.27;58.51
23176;BME280;19910;42.652;23.332;2023-04-07T01:27:35;94331.91;;;2.41;57.57
23176;BME280;19910;42.652;23.332;2023-04-07T01:30:09;94335.53;;;2.50;57.17
23176;BME280;19910;42.652;23.332;2023-04-07T01:32:39;94332.81;;;2.55;58.21
23176;BME280;19910;42.652;23.332;2023-04-07T01:35:09;94324.66;;;2.65;57.31
23176;BME280;19910;42.652;23.332;2023-04-07T01:37:38;94328.88;;;2.71;56.88
23176;BME280;19910;42.652;23.332;2023-04-07T01:40:07;94321.88;;;2.75;56.60
23176;BME280;19910;42.652;23.332;2023-04-07T01:42:34;94320.75;;;2.81;56.40
23176;BME280;19910;42.652;23.332;2023-04-07T01:45:05;94315.09;;;2.83;55.73
23176;BME280;19910;42.652;23.332;2023-04-07T01:47:33;94324.91;;;2.88;55.52
23176;BME280;19910;42.652;23.332;2023-04-07T01:50:02;94320.75;;;2.81;55.19
23176;BME280;19910;42.652;23.332;2023-04-07T01:52:30;94311.06;;;2.85;56.10
23176;BME280;19910;42.652;23.332;2023-04-07T01:54:57;94311.63;;;2.82;55.05
23176;BME280;19910;42.652;23.332;2023-04-07T01:57:25;94314.22;;;2.88;55.20
23176;BME280;19910;42.652;23.332;2023-04-07T01:59:52;94312.38;;;3.07;54.68
23176;BME280;19910;42.652;23.332;2023-04-07T02:02:20;94306.69;;;3.13;54.48
23176;BME280;19910;42.652;23.332;2023-04-07T02:04:51;94309.75;;;3.02;56.13
23176;BME280;19910;42.652;23.332;2023-04-07T02:07:25;94310.47;;;2.89;54.66
23176;BME280;19910;42.652;23.332;2023-04-07T02:09:55;94311.06;;;2.85;54.72
23176;BME280;19910;42.652;23.332;2023-04-07T02:12:25;94315.13;;;3.02;54.36
23176;BME280;19910;42.652;23.332;2023-04-07T02:14:53;94317.31;;;3.00;54.90
23176;BME280;19910;42.652;23.332;2023-04-07T02:17:22;94310.78;;;3.06;54.35
23176;BME280;19910;42.652;23.332;2023-04-07T02:19:51;94312.94;;;3.04;54.39
23176;BME280;19910;42.652;23.332;2023-04-07T02:22:19;94313.84;;;2.99;55.11
23176;BME280;19910;42.652;23.332;2023-04-07T02:24:46;94319.47;;;2.98;55.35
23176;BME280;19910;42.652;23.332;2023-04-07T02:27:12;94302.25;;;3.04;54.64
23176;BME280;19910;42.652;23.332;2023-04-07T02:29:39;94309.69;;;3.07;55.54
23176;BME280;19910;42.652;23.332;2023-04-07T02:32:06;94312.84;;;3.14;53.63
23176;BME280;19910;42.652;23.332;2023-04-07T02:34:35;94303.69;;;3.15;54.35
23176;BME280;19910;42.652;23.332;2023-04-07T02:37:01;94306.88;;;3.17;53.66
23176;BME280;19910;42.652;23.332;2023-04-07T02:39:28;94316.50;;;3.18;54.27
23176;BME280;19910;42.652;23.332;2023-04-07T02:41:55;94318.25;;;3.28;53.12
23176;BME280;19910;42.652;23.332;2023-04-07T02:44:22;94315.28;;;3.29;53.53
23176;BME280;19910;42.652;23.332;2023-04-07T02:46:48;94311.75;;;3.34;54.01
23176;BME280;19910;42.652;23.332;2023-04-07T02:49:15;94310.94;;;3.33;53.83
23176;BME280;19910;42.652;23.332;2023-04-07T02:51:43;94313.91;;;3.32;53.68
23176;BME280;19910;42.652;23.332;2023-04-07T02:54:11;94303.34;;;3.21;53.19
23176;BME280;19910;42.652;23.332;2023-04-07T02:56:37;94323.25;;;3.34;54.32
23176;BME280;19910;42.652;23.332;2023-04-07T02:59:04;94326.50;;;3.31;54.30
23176;BME280;19910;42.652;23.332;2023-04-07T03:01:31;94325.25;;;3.42;54.22
23176;BME280;19910;42.652;23.332;2023-04-07T03:03:59;94328.59;;;3.34;53.47
23176;BME280;19910;42.652;23.332;2023-04-07T03:06:25;94324.78;;;3.40;54.04
23176;BME280;19910;42.652;23.332;2023-04-07T03:08:54;94328.53;;;3.39;53.93
23176;BME280;19910;42.652;23.332;2023-04-07T03:11:21;94336.56;;;3.39;54.19
23176;BME280;19910;42.652;23.332;2023-04-07T03:13:47;94332.19;;;3.43;53.85
23176;BME280;19910;42.652;23.332;2023-04-07T03:16:14;94332.28;;;3.38;54.08
23176;BME280;19910;42.652;23.332;2023-04-07T03:18:41;94331.78;;;3.36;54.24
23176;BME280;19910;42.652;23.332;2023-04-07T03:21:08;94322.91;;;3.41;54.22
23176;BME280;19910;42.652;23.332;2023-04-07T03:23:34;94332.88;;;3.35;55.33
23176;BME280;19910;42.652;23.332;2023-04-07T03:26:03;94325.63;;;3.36;54.28
23176;BME280;19910;42.652;23.332;2023-04-07T03:28:29;94317.94;;;3.29;54.46
23176;BME280;19910;42.652;23.332;2023-04-07T03:30:56;94326.78;;;3.30;54.41
23176;BME280;19910;42.652;23.332;2023-04-07T03:33:23;94329.66;;;3.14;55.17
23176;BME280;19910;42.652;23.332;2023-04-07T03:35:50;94322.28;;;3.06;56.20
23176;BME280;19910;42.652;23.332;2023-04-07T03:38:16;94319.00;;;2.91;56.13
23176;BME280;19910;42.652;23.332;2023-04-07T03:40:43;94326.66;;;2.78;56.81
23176;BME280;19910;42.652;23.332;2023-04-07T03:43:11;94327.81;;;2.72;56.98
23176;BME280;19910;42.652;23.332;2023-04-07T03:45:40;94317.13;;;2.72;56.51
23176;BME280;19910;42.652;23.332;2023-04-07T03:48:06;94328.38;;;2.69;57.36
23176;BME280;19910;42.652;23.332;2023-04-07T03:50:36;94325.97;;;2.68;56.77
23176;BME280;19910;42.652;23.332;2023-04-07T03:53:03;94315.72;;;2.75;56.81
23176;BME280;19910;42.652;23.332;2023-04-07T03:55:30;94325.06;;;2.77;56.39
23176;BME280;19910;42.652;23.332;2023-04-07T03:57:57;94319.66;;;2.82;55.74
23176;BME280;19910;42.652;23.332;2023-04-07T04:00:25;94325.94;;;2.92;55.84
23176;BME280;19910;42.652;23.332;2023-04-07T04:02:52;94328.91;;;2.90;55.85
23176;BME280;19910;42.652;23.332;2023-04-07T04:05:19;94323.97;;;2.78;56.45
23176;BME280;19910;42.652;23.332;2023-04-07T04:07:45;94338.09;;;2.84;56.93
23176;BME280;19910;42.652;23.332;2023-04-07T04:10:12;94317.91;;;2.73;56.45
23176;BME280;19910;42.652;23.332;2023-04-07T04:12:40;94329.03;;;2.80;56.19
23176;BME280;19910;42.652;23.332;2023-04-07T04:15:08;94332.38;;;2.91;56.06
23176;BME280;19910;42.652;23.332;2023-04-07T04:17:36;94334.50;;;2.94;56.50
23176;BME280;19910;42.652;23.332;2023-04-07T04:20:04;94338.25;;;2.93;56.46
23176;BME280;19910;42.652;23.332;2023-04-07T04:22:31;94342.47;;;2.99;55.57
23176;BME280;19910;42.652;23.332;2023-04-07T04:24:58;94331.63;;;3.09;55.67
23176;BME280;19910;42.652;23.332;2023-04-07T04:27:25;94337.84;;;3.23;55.29
23176;BME280;19910;42.652;23.332;2023-04-07T04:29:52;94341.47;;;3.32;55.46
23176;BME280;19910;42.652;23.332;2023-04-07T04:32:19;94344.09;;;3.37;55.39
23176;BME280;19910;42.652;23.332;2023-04-07T04:34:48;94350.47;;;3.41;54.20
23176;BME280;19910;42.652;23.332;2023-04-07T04:37:15;94350.53;;;3.36;54.41
23176;BME280;19910;42.652;23.332;2023-04-07T04:39:41;94359.56;;;3.40;55.23
23176;BME280;19910;42.652;23.332;2023-04-07T04:42:08;94357.31;;;3.47;54.46
23176;BME280;19910;42.652;23.332;2023-04-07T04:44:35;94361.59;;;3.48;54.04
23176;BME280;19910;42.652;23.332;2023-04-07T04:47:01;94362.00;;;3.18;58.37
23176;BME280;19910;42.652;23.332;2023-04-07T04:49:28;94361.69;;;2.77;61.48
23176;BME280;19910;42.652;23.332;2023-04-07T04:51:57;94366.00;;;2.49;64.60
23176;BME280;19910;42.652;23.332;2023-04-07T04:54:24;94377.75;;;2.24;66.40
23176;BME280;19910;42.652;23.332;2023-04-07T04:56:50;94369.09;;;2.61;66.11
23176;BME280;19910;42.652;23.332;2023-04-07T04:59:17;94369.19;;;2.51;66.59
23176;BME280;19910;42.652;23.332;2023-04-07T05:01:44;94366.59;;;2.46;66.52
23176;BME280;19910;42.652;23.332;2023-04-07T05:04:11;94372.53;;;2.38;66.94
23176;BME280;19910;42.652;23.332;2023-04-07T05:06:37;94379.50;;;2.39;66.38
23176;BME280;19910;42.652;23.332;2023-04-07T05:09:05;94385.47;;;2.31;66.98
23176;BME280;19910;42.652;23.332;2023-04-07T05:11:32;94378.53;;;2.54;66.83
23176;BME280;19910;42.652;23.332;2023-04-07T05:13:59;94389.56;;;2.47;66.29
23176;BME280;19910;42.652;23.332;2023-04-07T05:16:26;94395.63;;;2.58;65.78
23176;BME280;19910;42.652;23.332;2023-04-07T05:18:52;94389.13;;;2.64;65.52
23176;BME280;19910;42.652;23.332;2023-04-07T05:21:19;94384.81;;;2.92;64.47
23176;BME280;19910;42.652;23.332;2023-04-07T05:23:46;94380.81;;;4.53;60.19
23176;BME280;19910;42.652;23.332;2023-04-07T05:26:14;94368.09;;;5.77;56.01
23176;BME280;19910;42.652;23.332;2023-04-07T05:28:41;94380.13;;;5.93;54.37
23176;BME280;19910;42.652;23.332;2023-04-07T05:31:07;94373.66;;;6.38;53.71
23176;BME280;19910;42.652;23.332;2023-04-07T05:33:34;94375.09;;;5.28;55.69
23176;BME280;19910;42.652;23.332;2023-04-07T05:36:01;94383.25;;;5.09;56.78
23176;BME280;19910;42.652;23.332;2023-04-07T05:38:28;94395.97;;;4.76;57.93
23176;BME280;19910;42.652;23.332;2023-04-07T05:40:55;94387.00;;;4.94;57.88
23176;BME280;19910;42.652;23.332;2023-04-07T05:43:23;94380.69;;;5.04;57.68
23176;BME280;19910;42.652;23.332;2023-04-07T05:45:50;94382.97;;;6.10;55.24
23176;BME280;19910;42.652;23.332;2023-04-07T05:48:16;94372.56;;;7.93;50.65
23176;BME280;19910;42.652;23.332;2023-04-07T05:50:43;94373.38;;;8.02;49.14
23176;BME280;19910;42.652;23.332;2023-04-07T05:53:10;94374.50;;;7.92;49.51
23176;BME280;19910;42.652;23.332;2023-04-07T05:55:37;94377.50;;;6.46;52.20
23176;BME280;19910;42.652;23.332;2023-04-07T05:58:04;94391.56;;;5.35;55.42
23176;BME280;19910;42.652;23.332;2023-04-07T06:00:32;94381.41;;;5.59;55.82
23176;BME280;19910;42.652;23.332;2023-04-07T06:02:58;94381.38;;;5.73;54.83
23176;BME280;19910;42.652;23.332;2023-04-07T06:05:26;94382.22;;;5.82;54.03
23176;BME280;19910;42.652;23.332;2023-04-07T06:07:52;94377.41;;;5.70;54.99
23176;BME280;19910;42.652;23.332;2023-04-07T06:10:19;94378.06;;;7.53;50.28
23176;BME280;19910;42.652;23.332;2023-04-07T06:12:46;94367.94;;;7.67;48.54
23176;BME280;19910;42.652;23.332;2023-04-07T06:15:13;94368.53;;;8.85;45.40
23176;BME280;19910;42.652;23.332;2023-04-07T06:17:41;94352.44;;;11.17;42.39
23176;BME280;19910;42.652;23.332;2023-04-07T06:20:10;94350.56;;;12.46;38.74
23176;BME280;19910;42.652;23.332;2023-04-07T06:22:38;94355.66;;;12.48;38.39
23176;BME280;19910;42.652;23.332;2023-04-07T06:25:05;94365.94;;;12.27;37.85
23176;BME280;19910;42.652;23.332;2023-04-07T06:27:32;94367.81;;;11.13;41.07
23176;BME280;19910;42.652;23.332;2023-04-07T06:29:59;94365.31;;;11.69;39.73
23176;BME280;19910;42.652;23.332;2023-04-07T06:32:26;94355.63;;;11.56;40.30
23176;BME280;19910;42.652;23.332;2023-04-07T06:34:54;94361.09;;;10.98;40.19
23176;BME280;19910;42.652;23.332;2023-04-07T06:37:21;94350.28;;;11.96;38.81
23176;BME280;19910;42.652;23.332;2023-04-07T06:39:49;94349.63;;;12.27;39.09
23176;BME280;19910;42.652;23.332;2023-04-07T06:42:15;94338.63;;;13.38;37.34
23176;BME280;19910;42.652;23.332;2023-04-07T06:44:42;94360.56;;;12.02;38.35
23176;BME280;19910;42.652;23.332;2023-04-07T06:47:09;94363.84;;;11.11;38.53
23176;BME280;19910;42.652;23.332;2023-04-07T06:49:36;94352.22;;;11.83;37.96
23176;BME280;19910;42.652;23.332;2023-04-07T06:52:05;94358.91;;;12.81;37.24
23176;BME280;19910;42.652;23.332;2023-04-07T06:54:32;94342.75;;;13.48;35.90
23176;BME280;19910;42.652;23.332;2023-04-07T06:56:58;94331.84;;;15.18;33.38
23176;BME280;19910;42.652;23.332;2023-04-07T06:59:25;94339.25;;;15.40;32.55
23176;BME280;19910;42.652;23.332;2023-04-07T07:01:52;94338.38;;;16.08;30.97
23176;BME280;19910;42.652;23.332;2023-04-07T07:04:19;94335.81;;;14.78;31.59
23176;BME280;19910;42.652;23.332;2023-04-07T07:06:46;94363.28;;;11.66;34.93
23176;BME280;19910;42.652;23.332;2023-04-07T07:09:14;94368.94;;;10.34;36.70
23176;BME280;19910;42.652;23.332;2023-04-07T07:11:41;94379.34;;;8.85;39.37
23176;BME280;19910;42.652;23.332;2023-04-07T07:14:07;94381.00;;;8.17;41.06
23176;BME280;19910;42.652;23.332;2023-04-07T07:16:34;94367.56;;;8.81;40.13
23176;BME280;19910;42.652;23.332;2023-04-07T07:19:01;94376.59;;;9.32;39.78
23176;BME280;19910;42.652;23.332;2023-04-07T07:21:28;94383.25;;;9.43;39.14
23176;BME280;19910;42.652;23.332;2023-04-07T07:23:55;94377.34;;;8.21;41.01
23176;BME280;19910;42.652;23.332;2023-04-07T07:26:23;94377.34;;;8.56;41.00
23176;BME280;19910;42.652;23.332;2023-04-07T07:28:50;94386.28;;;9.91;39.59
23176;BME280;19910;42.652;23.332;2023-04-07T07:31:17;94378.97;;;10.33;37.55
23176;BME280;19910;42.652;23.332;2023-04-07T07:33:44;94382.19;;;10.81;37.80
23176;BME280;19910;42.652;23.332;2023-04-07T07:36:13;94389.13;;;10.16;38.48
23176;BME280;19910;42.652;23.332;2023-04-07T07:38:40;94373.34;;;11.17;37.11
23176;BME280;19910;42.652;23.332;2023-04-07T07:41:07;94381.16;;;11.43;35.97
23176;BME280;19910;42.652;23.332;2023-04-07T07:43:35;94393.75;;;11.02;36.66
23176;BME280;19910;42.652;23.332;2023-04-07T07:46:02;94390.81;;;11.07;37.41
23176;BME280;19910;42.652;23.332;2023-04-07T07:48:29;94398.91;;;10.29;39.29
23176;BME280;19910;42.652;23.332;2023-04-07T07:50:55;94400.72;;;10.25;38.60
23176;BME280;19910;42.652;23.332;2023-04-07T07:53:22;94394.38;;;9.91;38.52
23176;BME280;19910;42.652;23.332;2023-04-07T07:55:49;94396.72;;;9.72;38.82
23176;BME280;19910;42.652;23.332;2023-04-07T07:58:16;94394.56;;;10.37;37.38
23176;BME280;19910;42.652;23.332;2023-04-07T08:00:44;94385.13;;;10.76;36.97
23176;BME280;19910;42.652;23.332;2023-04-07T08:03:11;94390.44;;;10.51;37.57
23176;BME280;19910;42.652;23.332;2023-04-07T08:05:38;94399.66;;;10.38;37.37
23176;BME280;19910;42.652;23.332;2023-04-07T08:08:05;94393.78;;;10.36;37.36
23176;BME280;19910;42.652;23.332;2023-04-07T08:10:31;94391.34;;;10.55;38.07
23176;BME280;19910;42.652;23.332;2023-04-07T08:12:58;94402.69;;;9.86;40.83
23176;BME280;19910;42.652;23.332;2023-04-07T08:15:25;94393.91;;;10.19;38.60
23176;BME280;19910;42.652;23.332;2023-04-07T08:17:53;94392.78;;;10.74;37.41
23176;BME280;19910;42.652;23.332;2023-04-07T08:20:20;94388.19;;;10.86;37.21
23176;BME280;19910;42.652;23.332;2023-04-07T08:22:47;94397.06;;;10.42;37.28
23176;BME280;19910;42.652;23.332;2023-04-07T08:25:14;94393.16;;;10.84;38.58
23176;BME280;19910;42.652;23.332;2023-04-07T08:27:41;94396.44;;;10.90;38.30
23176;BME280;19910;42.652;23.332;2023-04-07T08:30:08;94395.94;;;10.76;36.88
23176;BME280;19910;42.652;23.332;2023-04-07T08:32:35;94397.63;;;11.25;37.77
23176;BME280;19910;42.652;23.332;2023-04-07T08:35:04;94391.81;;;10.90;36.94
23176;BME280;19910;42.652;23.332;2023-04-07T08:37:31;94399.34;;;10.85;37.82
23176;BME280;19910;42.652;23.332;2023-04-07T08:39:58;94391.78;;;10.45;37.77
23176;BME280;19910;42.652;23.332;2023-04-07T08:42:27;94390.09;;;10.86;36.93
23176;BME280;19910;42.652;23.332;2023-04-07T08:44:55;94387.19;;;10.91;37.28
23176;BME280;19910;42.652;23.332;2023-04-07T08:47:24;94392.28;;;10.59;37.79
23176;BME280;19910;42.652;23.332;2023-04-07T08:49:53;94398.38;;;10.36;39.03
23176;BME280;19910;42.652;23.332;2023-04-07T08:52:26;94389.09;;;10.57;39.16
23176;BME280;19910;42.652;23.332;2023-04-07T08:54:58;94387.22;;;11.15;37.11
23176;BME280;19910;42.652;23.332;2023-04-07T08:57:28;94394.94;;;12.10;37.53
23176;BME280;19910;42.652;23.332;2023-04-07T08:59:56;94393.44;;;11.16;37.01
23176;BME280;19910;42.652;23.332;2023-04-07T09:02:26;94388.09;;;10.95;38.10
23176;BME280;19910;42.652;23.332;2023-04-07T09:04:53;94395.34;;;11.03;37.68
23176;BME280;19910;42.652;23.332;2023-04-07T09:07:22;94397.09;;;10.87;37.20
23176;BME280;19910;42.652;23.332;2023-04-07T09:09:49;94398.09;;;11.39;37.37
23176;BME280;19910;42.652;23.332;2023-04-07T09:12:16;94394.72;;;11.30;36.54
23176;BME280;19910;42.652;23.332;2023-04-07T09:14:43;94387.25;;;11.52;37.58
23176;BME280;19910;42.652;23.332;2023-04-07T09:17:10;94392.22;;;11.25;36.15
23176;BME280;19910;42.652;23.332;2023-04-07T09:19:37;94385.22;;;11.49;35.54
23176;BME280;19910;42.652;23.332;2023-04-07T09:22:04;94381.81;;;11.52;36.11
23176;BME280;19910;42.652;23.332;2023-04-07T09:24:32;94392.69;;;11.76;35.62
23176;BME280;19910;42.652;23.332;2023-04-07T09:27:09;94383.38;;;12.14;34.93
23176;BME280;19910;42.652;23.332;2023-04-07T09:29:37;94393.69;;;12.08;35.71
23176;BME280;19910;42.652;23.332;2023-04-07T09:32:04;94390.84;;;12.04;35.24
23176;BME280;19910;42.652;23.332;2023-04-07T09:34:32;94391.78;;;11.60;36.72
23176;BME280;19910;42.652;23.332;2023-04-07T09:37:00;94395.41;;;11.76;36.36
23176;BME280;19910;42.652;23.332;2023-04-07T09:39:27;94394.84;;;11.58;38.24
23176;BME280;19910;42.652;23.332;2023-04-07T09:41:56;94391.44;;;11.49;36.27
23176;BME280;19910;42.652;23.332;2023-04-07T09:44:24;94412.66;;;10.78;38.10
23176;BME280;19910;42.652;23.332;2023-04-07T09:46:51;94410.34;;;10.67;38.31
23176;BME280;19910;42.652;23.332;2023-04-07T09:49:18;94406.38;;;10.32;38.48
23176;BME280;19910;42.652;23.332;2023-04-07T09:51:52;94409.03;;;9.90;39.86
23176;BME280;19910;42.652;23.332;2023-04-07T09:54:31;94411.03;;;10.02;39.35
23176;BME280;19910;42.652;23.332;2023-04-07T09:57:01;94409.50;;;10.22;39.73
23176;BME280;19910;42.652;23.332;2023-04-07T09:59:29;94413.56;;;10.28;39.65
23176;BME280;19910;42.652;23.332;2023-04-07T10:01:56;94411.19;;;9.47;40.22
23176;BME280;19910;42.652;23.332;2023-04-07T10:04:23;94411.00;;;9.81;40.21
23176;BME280;19910;42.652;23.332;2023-04-07T10:06:51;94405.38;;;9.66;41.75
23176;BME280;19910;42.652;23.332;2023-04-07T10:09:18;94414.66;;;9.56;39.47
23176;BME280;19910;42.652;23.332;2023-04-07T10:11:45;94406.94;;;10.58;39.61
23176;BME280;19910;42.652;23.332;2023-04-07T10:14:14;94397.03;;;11.08;39.03
23176;BME280;19910;42.652;23.332;2023-04-07T10:16:41;94410.03;;;11.14;37.70
23176;BME280;19910;42.652;23.332;2023-04-07T10:19:08;94403.31;;;11.45;37.30
23176;BME280;19910;42.652;23.332;2023-04-07T10:21:38;94400.59;;;11.57;38.42
23176;BME280;19910;42.652;23.332;2023-04-07T10:24:14;94414.19;;;10.66;39.16
23176;BME280;19910;42.652;23.332;2023-04-07T10:26:50;94413.69;;;10.52;38.83
23176;BME280;19910;42.652;23.332;2023-04-07T10:29:20;94413.91;;;10.47;38.79
23176;BME280;19910;42.652;23.332;2023-04-07T10:31:48;94409.41;;;10.51;40.05
23176;BME280;19910;42.652;23.332;2023-04-07T10:34:14;94404.56;;;10.57;38.94
23176;BME280;19910;42.652;23.332;2023-04-07T10:37:08;94416.69;;;10.72;38.60
23176;BME280;19910;42.652;23.332;2023-04-07T10:39:35;94411.41;;;10.75;38.58
23176;BME280;19910;42.652;23.332;2023-04-07T10:42:02;94415.63;;;10.85;38.09
23176;BME280;19910;42.652;23.332;2023-04-07T10:44:47;94424.91;;;10.42;39.64
23176;BME280;19910;42.652;23.332;2023-04-07T10:47:15;94414.69;;;10.48;40.47
23176;BME280;19910;42.652;23.332;2023-04-07T10:50:15;94412.69;;;10.90;39.65
23176;BME280;19910;42.652;23.332;2023-04-07T10:52:43;94414.59;;;10.56;38.96
23176;BME280;19910;42.652;23.332;2023-04-07T10:55:31;94421.34;;;10.09;39.79
23176;BME280;19910;42.652;23.332;2023-04-07T10:58:14;94431.16;;;9.25;42.99
23176;BME280;19910;42.652;23.332;2023-04-07T11:01:18;94432.53;;;9.02;44.13
23176;BME280;19910;42.652;23.332;2023-04-07T11:03:58;94442.22;;;8.94;44.98
23176;BME280;19910;42.652;23.332;2023-04-07T11:06:25;94445.13;;;8.72;44.52
23176;BME280;19910;42.652;23.332;2023-04-07T11:08:52;94446.72;;;8.38;44.88
23176;BME280;19910;42.652;23.332;2023-04-07T11:11:38;94446.88;;;8.68;44.73
23176;BME280;19910;42.652;23.332;2023-04-07T11:14:05;94451.50;;;8.59;45.22
23176;BME280;19910;42.652;23.332;2023-04-07T11:16:41;94436.00;;;9.02;45.94
23176;BME280;19910;42.652;23.332;2023-04-07T11:19:09;94442.28;;;8.60;44.81
23176;BME280;19910;42.652;23.332;2023-04-07T11:21:36;94447.69;;;8.42;45.73
23176;BME280;19910;42.652;23.332;2023-04-07T11:24:02;94443.69;;;8.48;45.99
23176;BME280;19910;42.652;23.332;2023-04-07T11:26:36;94442.56;;;8.84;44.32
23176;BME280;19910;42.652;23.332;2023-04-07T11:29:03;94437.53;;;9.29;44.78
23176;BME280;19910;42.652;23.332;2023-04-07T11:31:30;94436.56;;;9.63;43.42
23176;BME280;19910;42.652;23.332;2023-04-07T11:34:00;94444.38;;;9.85;43.50
23176;BME280;19910;42.652;23.332;2023-04-07T11:36:29;94446.19;;;9.81;42.94
23176;BME280;19910;42.652;23.332;2023-04-07T11:38:57;94434.97;;;9.62;44.03
23176;BME280;19910;42.652;23.332;2023-04-07T11:41:25;94441.13;;;9.33;44.96
23176;BME280;19910;42.652;23.332;2023-04-07T11:44:08;94448.13;;;9.43;44.51
23176;BME280;19910;42.652;23.332;2023-04-07T11:46:36;94445.03;;;9.06;45.28
23176;BME280;19910;42.652;23.332;2023-04-07T11:49:18;94448.38;;;9.12;45.86
23176;BME280;19910;42.652;23.332;2023-04-07T11:51:45;94450.16;;;8.90;46.00
23176;BME280;19910;42.652;23.332;2023-04-07T11:54:12;94440.94;;;9.00;45.88
23176;BME280;19910;42.652;23.332;2023-04-07T11:56:42;94442.19;;;9.03;46.28
23176;BME280;19910;42.652;23.332;2023-04-07T11:59:19;94437.66;;;9.33;45.31
23176;BME280;19910;42.652;23.332;2023-04-07T12:01:47;94427.47;;;9.30;46.37
23176;BME280;19910;42.652;23.332;2023-04-07T12:04:14;94435.56;;;9.30;46.02
23176;BME280;19910;42.652;23.332;2023-04-07T12:06:43;94443.22;;;8.64;47.39
23176;BME280;19910;42.652;23.332;2023-04-07T12:09:26;94444.16;;;8.85;47.64
23176;BME280;19910;42.652;23.332;2023-04-07T12:11:54;94431.00;;;9.21;46.60
23176;BME280;19910;42.652;23.332;2023-04-07T12:14:22;94432.13;;;9.29;46.53
23176;BME280;19910;42.652;23.332;2023-04-07T12:16:49;94439.69;;;9.36;45.80
23176;BME280;19910;42.652;23.332;2023-04-07T12:19:16;94436.47;;;9.13;46.41
23176;BME280;19910;42.652;23.332;2023-04-07T12:21:44;94438.44;;;8.78;46.95
23176;BME280;19910;42.652;23.332;2023-04-07T12:24:11;94440.63;;;8.93;46.70
23176;BME280;19910;42.652;23.332;2023-04-07T12:26:38;94455.31;;;8.40;47.41
23176;BME280;19910;42.652;23.332;2023-04-07T12:29:05;94433.56;;;8.45;47.92
23176;BME280;19910;42.652;23.332;2023-04-07T12:31:32;94444.81;;;8.30;47.81
23176;BME280;19910;42.652;23.332;2023-04-07T12:33:58;94443.88;;;8.43;47.70
23176;BME280;19910;42.652;23.332;2023-04-07T12:36:26;94440.84;;;8.28;47.89
23176;BME280;19910;42.652;23.332;2023-04-07T12:38:55;94447.50;;;8.13;48.19
23176;BME280;19910;42.652;23.332;2023-04-07T12:41:22;94438.47;;;8.61;48.00
23176;BME280;19910;42.652;23.332;2023-04-07T12:43:50;94429.47;;;9.12;47.01
23176;BME280;19910;42.652;23.332;2023-04-07T12:46:17;94442.22;;;8.94;47.02
23176;BME280;19910;42.652;23.332;2023-04-07T12:48:44;94451.63;;;8.62;48.08
23176;BME280;19910;42.652;23.332;2023-04-07T12:51:12;94451.31;;;8.64;47.60
23176;BME280;19910;42.652;23.332;2023-04-07T12:53:39;94454.91;;;9.02;47.15
23176;BME280;19910;42.652;23.332;2023-04-07T12:56:07;94447.97;;;8.75;46.55
23176;BME280;19910;42.652;23.332;2023-04-07T12:58:34;94449.91;;;8.40;47.65
23176;BME280;19910;42.652;23.332;2023-04-07T13:01:01;94453.72;;;8.39;48.27
23176;BME280;19910;42.652;23.332;2023-04-07T13:03:27;94454.31;;;8.88;48.04